createdAt,value
2019-05-01T00:00:15.775Z,99538.88
2019-05-01T00:02:58.569Z,99534.30
2019-05-01T00:05:34.539Z,99536.42
2019-05-01T00:08:08.275Z,99530.45
2019-05-01T00:10:40.999Z,99532.01
2019-05-01T00:13:13.524Z,99528.28
2019-05-01T00:15:47.209Z,99525.35
2019-05-01T00:18:19.726Z,99524.23
2019-05-01T00:20:52.189Z,99522.58
2019-05-01T00:23:24.646Z,99521.84
2019-05-01T00:25:57.079Z,99521.67
2019-05-01T00:28:29.583Z,99521.77
2019-05-01T00:31:02.054Z,99516.92
2019-05-01T00:33:34.579Z,99518.01
2019-05-01T00:36:08.086Z,99513.95
2019-05-01T00:38:40.528Z,99513.83
2019-05-01T00:41:14.014Z,99513.42
2019-05-01T00:43:46.468Z,99508.89
2019-05-01T00:46:18.955Z,99507.99
2019-05-01T00:48:51.407Z,99506.33
2019-05-01T00:51:23.821Z,99505.31
2019-05-01T00:53:56.264Z,99502.55
2019-05-01T00:56:53.476Z,99503.73
2019-05-01T00:59:36.877Z,99502.45
2019-05-01T01:02:25.501Z,99499.63
2019-05-01T01:04:57.936Z,99499.46
2019-05-01T01:07:30.346Z,99498.03
2019-05-01T01:10:04.301Z,99496.85
2019-05-01T01:12:36.712Z,99499.61
2019-05-01T01:15:09.146Z,99490.66
2019-05-01T01:17:41.581Z,99493.49
2019-05-01T01:20:14.015Z,99493.42
2019-05-01T01:22:46.438Z,99489.06
2019-05-01T01:25:18.871Z,99489.22
2019-05-01T01:27:51.321Z,99486.45
2019-05-01T01:30:23.757Z,99485.44
2019-05-01T01:32:56.198Z,99489.59
2019-05-01T01:35:28.649Z,99487.78
2019-05-01T01:38:01.074Z,99486.70
2019-05-01T01:40:33.491Z,99490.37
2019-05-01T01:43:23.821Z,99486.02
2019-05-01T01:45:57.065Z,99486.86
2019-05-01T01:48:29.494Z,99487.88
2019-05-01T01:51:02.033Z,99482.19
2019-05-01T01:53:34.467Z,99485.70
2019-05-01T01:56:06.879Z,99483.35
2019-05-01T01:58:39.313Z,99477.44
2019-05-01T02:01:25.481Z,99479.45
2019-05-01T02:04:02.925Z,99478.30
2019-05-01T02:06:35.340Z,99474.19
2019-05-01T02:09:07.907Z,99481.76
2019-05-01T02:11:41.914Z,99475.41
2019-05-01T02:14:14.348Z,99480.05
2019-05-01T02:16:46.743Z,99477.43
2019-05-01T02:19:19.200Z,99479.45
2019-05-01T02:21:52.592Z,99475.61
2019-05-01T02:24:25.016Z,99474.91
2019-05-01T02:26:59.104Z,99470.13
2019-05-01T02:29:37.481Z,99472.35
2019-05-01T02:32:09.897Z,99469.48
2019-05-01T02:34:42.345Z,99468.41
2019-05-01T02:37:14.852Z,99469.31
2019-05-01T02:39:47.294Z,99465.11
2019-05-01T02:42:21.120Z,99464.88
2019-05-01T02:44:53.550Z,99463.82
2019-05-01T02:47:32.560Z,99462.11
2019-05-01T02:50:11.284Z,99462.68
2019-05-01T02:52:43.690Z,99459.06
2019-05-01T02:55:31.527Z,99463.22
2019-05-01T02:58:03.936Z,99458.38
2019-05-01T03:00:36.366Z,99458.20
2019-05-01T03:03:08.774Z,99458.52
2019-05-01T03:05:41.844Z,99456.94
2019-05-01T03:08:14.178Z,99458.09
2019-05-01T03:10:46.692Z,99462.36
2019-05-01T03:13:19.090Z,99458.68
2019-05-01T03:15:51.538Z,99459.00
2019-05-01T03:18:29.511Z,99463.69
2019-05-01T03:21:16.394Z,99464.78
2019-05-01T03:23:52.545Z,99458.66
2019-05-01T03:26:24.974Z,99459.28
2019-05-01T03:28:57.385Z,99455.05
2019-05-01T03:31:29.810Z,99457.52
2019-05-01T03:34:02.250Z,99454.67
2019-05-01T03:36:34.703Z,99455.91
2019-05-01T03:39:07.650Z,99453.17
2019-05-01T03:41:40.074Z,99454.39
2019-05-01T03:44:12.602Z,99450.67
2019-05-01T03:46:45.383Z,99450.50
2019-05-01T03:49:17.801Z,99453.86
2019-05-01T03:51:50.341Z,99455.70
2019-05-01T03:54:22.746Z,99448.80
2019-05-01T03:56:55.182Z,99453.27
2019-05-01T03:59:27.612Z,99452.74
2019-05-01T04:02:33.885Z,99456.83
2019-05-01T04:05:00.196Z,99458.72
2019-05-01T04:07:36.103Z,99460.37
2019-05-01T04:10:07.410Z,99456.09
2019-05-01T04:12:39.828Z,99457.12
2019-05-01T04:15:12.249Z,99460.15
2019-05-01T04:17:50.222Z,99454.50
2019-05-01T04:20:22.642Z,99455.47
2019-05-01T04:22:55.079Z,99455.82
2019-05-01T04:25:27.495Z,99454.40
2019-05-01T04:28:02.182Z,99454.72
2019-05-01T04:30:53.510Z,99455.84
2019-05-01T04:33:27.817Z,99455.92
2019-05-01T04:36:05.690Z,99455.39
2019-05-01T04:38:39.204Z,99458.91
2019-05-01T04:41:11.615Z,99458.00
2019-05-01T04:43:44.046Z,99459.92
2019-05-01T04:46:16.445Z,99459.34
2019-05-01T04:48:49.033Z,99453.81
2019-05-01T04:51:21.372Z,99460.41
2019-05-01T04:53:53.810Z,99466.66
2019-05-01T04:56:26.265Z,99461.45
2019-05-01T04:58:58.710Z,99457.36
2019-05-01T05:01:50.037Z,99463.86
2019-05-01T05:04:22.849Z,99464.06
2019-05-01T05:06:55.283Z,99465.34
2019-05-01T05:09:44.411Z,99469.40
2019-05-01T05:12:45.119Z,99470.08
2019-05-01T05:15:40.376Z,99471.03
2019-05-01T05:18:14.379Z,99469.34
2019-05-01T05:20:46.791Z,99475.25
2019-05-01T05:23:19.282Z,99475.09
2019-05-01T05:25:51.700Z,99471.48
2019-05-01T05:28:24.845Z,99470.06
2019-05-01T05:30:57.781Z,99471.67
2019-05-01T05:33:32.850Z,99475.30
2019-05-01T05:36:06.551Z,99471.89
2019-05-01T05:39:06.966Z,99475.91
2019-05-01T05:41:39.732Z,99475.70
2019-05-01T05:44:12.182Z,99478.48
2019-05-01T05:46:44.592Z,99477.69
2019-05-01T05:49:17.035Z,99483.19
2019-05-01T05:51:58.356Z,99482.09
2019-05-01T05:55:01.942Z,99477.95
2019-05-01T05:57:43.230Z,99479.03
2019-05-01T06:00:37.575Z,99473.88
2019-05-01T06:03:31.257Z,99481.33
2019-05-01T06:06:09.352Z,99474.71
2019-05-01T06:08:41.785Z,99474.45
2019-05-01T06:11:33.915Z,99477.08
2019-05-01T06:14:18.591Z,99474.74
2019-05-01T06:17:11.128Z,99474.05
2019-05-01T06:19:54.029Z,99475.92
2019-05-01T06:22:31.893Z,99474.91
2019-05-01T06:25:21.561Z,99474.90
2019-05-01T06:27:44.805Z,99477.63
2019-05-01T06:30:17.227Z,99478.35
2019-05-01T06:32:49.648Z,99479.62
2019-05-01T06:35:22.098Z,99475.89
2019-05-01T06:38:05.895Z,99481.59
2019-05-01T06:40:42.581Z,99484.98
2019-05-01T06:43:35.990Z,99475.95
2019-05-01T06:46:29.075Z,99482.03
2019-05-01T06:49:11.365Z,99481.59
2019-05-01T06:51:53.289Z,99482.22
2019-05-01T06:54:23.895Z,99479.04
2019-05-01T06:56:56.549Z,99478.95
2019-05-01T06:59:31.379Z,99482.45
2019-05-01T07:02:03.384Z,99481.88
2019-05-01T07:04:37.941Z,99479.31
2019-05-01T07:07:24.677Z,99476.45
2019-05-01T07:09:48.953Z,99477.92
2019-05-01T07:12:23.884Z,99476.58
2019-05-01T07:14:55.515Z,99472.06
2019-05-01T07:17:27.965Z,99478.17
2019-05-01T07:20:21.737Z,99478.32
2019-05-01T07:22:55.833Z,99476.86
2019-05-01T07:25:28.290Z,99476.99
2019-05-01T07:28:00.730Z,99473.76
2019-05-01T07:30:49.947Z,99474.86
2019-05-01T07:33:22.979Z,99475.43
2019-05-01T07:35:55.417Z,99475.06
2019-05-01T07:38:27.853Z,99467.86
2019-05-01T07:41:03.475Z,99473.25
2019-05-01T07:43:44.907Z,99469.81
2019-05-01T07:46:26.468Z,99466.19
2019-05-01T07:48:58.981Z,99466.00
2019-05-01T07:51:31.418Z,99468.39
2019-05-01T07:54:08.514Z,99464.22
2019-05-01T07:56:38.257Z,99458.94
2019-05-01T07:59:10.594Z,99457.22
2019-05-01T08:02:04.769Z,99456.05
2019-05-01T08:04:37.179Z,99453.31
2019-05-01T08:07:09.624Z,99460.72
2019-05-01T08:09:45.759Z,99451.78
2019-05-01T08:12:18.979Z,99456.66
2019-05-01T08:14:52.437Z,99458.75
2019-05-01T08:17:26.187Z,99460.16
2019-05-01T08:20:04.365Z,99460.87
2019-05-01T08:22:39.071Z,99456.01
2019-05-01T08:25:11.627Z,99453.00
2019-05-01T08:27:51.097Z,99455.64
2019-05-01T08:30:42.477Z,99452.28
2019-05-01T08:33:36.678Z,99452.27
2019-05-01T08:36:11.767Z,99451.31
2019-05-01T08:38:45.393Z,99448.80
2019-05-01T08:41:17.798Z,99444.23
2019-05-01T08:43:53.900Z,99445.30
2019-05-01T08:46:58.452Z,99446.80
2019-05-01T08:49:34.601Z,99443.73
2019-05-01T08:52:12.576Z,99443.08
2019-05-01T08:54:41.329Z,99443.38
2019-05-01T08:57:13.759Z,99438.63
2019-05-01T08:59:47.233Z,99441.78
2019-05-01T09:02:19.661Z,99439.36
2019-05-01T09:05:02.025Z,99438.06
2019-05-01T09:07:26.231Z,99434.21
2019-05-01T09:09:58.652Z,99430.81
2019-05-01T09:12:31.089Z,99426.61
2019-05-01T09:15:07.171Z,99423.67
2019-05-01T09:17:37.693Z,99422.36
2019-05-01T09:20:10.128Z,99421.39
2019-05-01T09:22:42.554Z,99415.38
2019-05-01T09:25:17.278Z,99416.58
2019-05-01T09:27:55.187Z,99415.82
2019-05-01T09:30:51.382Z,99409.55
2019-05-01T09:33:26.204Z,99405.30
2019-05-01T09:35:57.968Z,99407.44
2019-05-01T09:38:30.414Z,99407.11
2019-05-01T09:41:02.829Z,99401.42
2019-05-01T09:43:36.009Z,99398.17
2019-05-01T09:46:09.453Z,99399.73
2019-05-01T09:48:41.962Z,99396.25
2019-05-01T09:51:30.978Z,99396.58
2019-05-01T09:54:12.752Z,99393.11
2019-05-01T09:56:46.311Z,99394.69
2019-05-01T09:59:19.118Z,99395.11
2019-05-01T10:01:51.702Z,99396.09
2019-05-01T10:04:25.248Z,99394.49
2019-05-01T10:06:58.296Z,99390.24
2019-05-01T10:09:30.736Z,99383.78
2019-05-01T10:12:03.153Z,99383.04
2019-05-01T10:14:36.369Z,99377.95
2019-05-01T10:17:09.845Z,99375.79
2019-05-01T10:19:42.373Z,99372.45
2019-05-01T10:22:14.792Z,99376.08
2019-05-01T10:24:47.222Z,99368.30
2019-05-01T10:27:23.048Z,99360.06
2019-05-01T10:30:26.229Z,99359.64
2019-05-01T10:33:02.995Z,99354.17
2019-05-01T10:35:44.629Z,99346.59
2019-05-01T10:38:17.115Z,99347.11
2019-05-01T10:40:49.543Z,99345.05
2019-05-01T10:43:22.013Z,99346.86
2019-05-01T10:45:54.453Z,99337.87
2019-05-01T10:48:26.849Z,99336.67
2019-05-01T10:50:59.281Z,99336.34
2019-05-01T10:53:31.698Z,99332.47
2019-05-01T10:56:04.134Z,99336.53
2019-05-01T10:58:36.539Z,99333.45
2019-05-01T11:01:20.644Z,99325.77
2019-05-01T11:03:53.055Z,99324.30
2019-05-01T11:06:25.490Z,99322.97
2019-05-01T11:08:57.906Z,99332.02
2019-05-01T11:11:30.336Z,99322.10
2019-05-01T11:14:02.751Z,99325.31
2019-05-01T11:16:35.272Z,99316.31
2019-05-01T11:19:07.700Z,99310.78
2019-05-01T11:21:40.144Z,99318.67
2019-05-01T11:24:12.552Z,99314.09
2019-05-01T11:26:45.069Z,99309.20
2019-05-01T11:29:18.547Z,99310.13
2019-05-01T11:32:08.929Z,99309.75
2019-05-01T11:34:51.485Z,99303.03
2019-05-01T11:37:51.399Z,99293.73
2019-05-01T11:40:33.777Z,99304.34
2019-05-01T11:43:07.166Z,99299.89
2019-05-01T11:45:39.689Z,99295.34
2019-05-01T11:48:12.097Z,99298.20
2019-05-01T11:50:44.531Z,99293.12
2019-05-01T11:53:16.939Z,99292.28
2019-05-01T11:55:49.389Z,99289.15
2019-05-01T11:58:21.806Z,99285.37
2019-05-01T12:00:55.887Z,99283.38
2019-05-01T12:03:28.334Z,99287.23
2019-05-01T12:06:00.759Z,99282.63
2019-05-01T12:08:33.177Z,99283.73
2019-05-01T12:11:08.357Z,99285.80
2019-05-01T12:13:43.866Z,99283.85
2019-05-01T12:16:26.508Z,99280.73
2019-05-01T12:18:58.910Z,99280.22
2019-05-01T12:21:31.340Z,99277.35
2019-05-01T12:24:03.958Z,99280.75
2019-05-01T12:26:36.389Z,99279.77
2019-05-01T12:29:09.868Z,99283.35
2019-05-01T12:31:42.303Z,99276.75
2019-05-01T12:34:14.743Z,99273.02
2019-05-01T12:36:48.069Z,99274.14
2019-05-01T12:39:20.424Z,99265.73
2019-05-01T12:41:59.698Z,99265.38
2019-05-01T12:44:32.110Z,99264.25
2019-05-01T12:47:16.409Z,99256.83
2019-05-01T12:49:50.050Z,99254.23
2019-05-01T12:52:47.439Z,99250.65
2019-05-01T12:55:26.194Z,99248.20
2019-05-01T12:57:58.618Z,99237.17
2019-05-01T13:00:42.571Z,99237.96
2019-05-01T13:03:15.026Z,99234.89
2019-05-01T13:05:47.364Z,99237.51
2019-05-01T13:08:19.800Z,99227.18
2019-05-01T13:10:52.216Z,99229.13
2019-05-01T13:13:24.650Z,99220.07
2019-05-01T13:15:57.053Z,99225.05
2019-05-01T13:18:29.494Z,99220.50
2019-05-01T13:21:01.917Z,99217.88
2019-05-01T13:23:34.351Z,99216.86
2019-05-01T13:26:28.444Z,99216.05
2019-05-01T13:29:19.798Z,99214.84
2019-05-01T13:31:55.741Z,99206.73
2019-05-01T13:34:28.187Z,99205.23
2019-05-01T13:37:03.110Z,99206.06
2019-05-01T13:39:36.035Z,99199.89
2019-05-01T13:42:09.072Z,99197.13
2019-05-01T13:44:41.687Z,99186.80
2019-05-01T13:47:14.089Z,99185.39
2019-05-01T13:49:46.528Z,99178.33
2019-05-01T13:52:18.936Z,99175.44
2019-05-01T13:54:51.377Z,99170.58
2019-05-01T13:57:23.771Z,99164.11
2019-05-01T13:59:56.201Z,99165.70
2019-05-01T14:02:28.669Z,99166.52
2019-05-01T14:05:01.095Z,99161.98
2019-05-01T14:07:33.767Z,99157.45
2019-05-01T14:10:06.454Z,99157.30
2019-05-01T14:12:38.869Z,99150.81
2019-05-01T14:15:11.293Z,99150.36
2019-05-01T14:17:43.774Z,99147.28
2019-05-01T14:20:44.447Z,99143.57
2019-05-01T14:23:25.328Z,99148.20
2019-05-01T14:26:04.172Z,99142.55
2019-05-01T14:28:38.182Z,99141.27
2019-05-01T14:31:10.593Z,99143.22
2019-05-01T14:33:42.973Z,99148.39
2019-05-01T14:36:15.346Z,99133.69
2019-05-01T14:38:47.740Z,99135.00
2019-05-01T14:41:20.167Z,99134.33
2019-05-01T14:43:52.567Z,99131.75
2019-05-01T14:46:24.924Z,99133.05
2019-05-01T14:48:57.323Z,99126.56
2019-05-01T14:51:29.745Z,99128.67
2019-05-01T14:54:02.148Z,99124.61
2019-05-01T14:56:34.625Z,99119.25
2019-05-01T14:59:07.066Z,99122.63
2019-05-01T15:01:39.483Z,99121.97
2019-05-01T15:04:11.884Z,99119.39
2019-05-01T15:06:44.329Z,99116.30
2019-05-01T15:09:16.733Z,99113.08
2019-05-01T15:11:49.153Z,99112.56
2019-05-01T15:14:46.301Z,99110.45
2019-05-01T15:17:22.731Z,99104.46
2019-05-01T15:20:01.850Z,99105.38
2019-05-01T15:22:34.331Z,99104.70
2019-05-01T15:25:06.811Z,99105.01
2019-05-01T15:27:39.248Z,99101.28
2019-05-01T15:30:14.163Z,99104.83
2019-05-01T15:32:46.707Z,99102.10
2019-05-01T15:35:19.137Z,99093.84
2019-05-01T15:37:56.871Z,99099.17
2019-05-01T15:40:56.881Z,99094.16
2019-05-01T15:43:34.003Z,99095.78
2019-05-01T15:46:06.428Z,99092.25
2019-05-01T15:48:38.850Z,99095.34
2019-05-01T15:51:11.246Z,99090.49
2019-05-01T15:53:43.675Z,99085.48
2019-05-01T15:56:16.079Z,99087.58
2019-05-01T15:58:48.510Z,99087.27
2019-05-01T16:01:20.987Z,99084.37
2019-05-01T16:03:53.419Z,99087.30
2019-05-01T16:06:25.814Z,99078.87
2019-05-01T16:08:59.234Z,99079.86
2019-05-01T16:12:02.534Z,99078.27
2019-05-01T16:14:34.958Z,99076.45
2019-05-01T16:17:07.363Z,99076.27
2019-05-01T16:19:39.807Z,99074.81
2019-05-01T16:22:12.292Z,99073.98
2019-05-01T16:24:44.718Z,99067.69
2019-05-01T16:27:17.117Z,99072.35
2019-05-01T16:29:49.553Z,99075.92
2019-05-01T16:32:21.957Z,99074.45
2019-05-01T16:34:54.406Z,99070.42
2019-05-01T16:37:26.803Z,99069.78
2019-05-01T16:40:18.157Z,99066.50
2019-05-01T16:42:50.489Z,99063.74
2019-05-01T16:45:22.931Z,99061.80
2019-05-01T16:47:55.332Z,99062.11
2019-05-01T16:50:27.932Z,99060.02
2019-05-01T16:53:00.343Z,99055.14
2019-05-01T16:55:32.771Z,99054.51
2019-05-01T16:58:06.509Z,99052.36
2019-05-01T17:00:59.967Z,99053.47
2019-05-01T17:03:39.409Z,99053.59
2019-05-01T17:06:33.981Z,99049.22
2019-05-01T17:09:30.105Z,99046.75
2019-05-01T17:12:02.715Z,99045.11
2019-05-01T17:14:35.128Z,99048.16
2019-05-01T17:17:10.220Z,99041.20
2019-05-01T17:19:42.739Z,99043.59
2019-05-01T17:22:16.191Z,99040.05
2019-05-01T17:24:49.054Z,99045.81
2019-05-01T17:27:21.472Z,99047.27
2019-05-01T17:29:53.910Z,99050.92
2019-05-01T17:32:26.451Z,99048.64
2019-05-01T17:35:01.932Z,99044.94
2019-05-01T17:37:33.168Z,99045.23
2019-05-01T17:40:07.634Z,99043.61
2019-05-01T17:42:40.046Z,99044.05
2019-05-01T17:45:12.562Z,99046.61
2019-05-01T17:47:44.977Z,99047.56
2019-05-01T17:50:21.078Z,99045.43
2019-05-01T17:52:51.530Z,99042.99
2019-05-01T17:55:24.081Z,99042.13
2019-05-01T17:57:56.497Z,99042.30
2019-05-01T18:01:02.942Z,99039.48
2019-05-01T18:03:46.969Z,99046.18
2019-05-01T18:06:22.655Z,99048.86
2019-05-01T18:09:02.871Z,99046.13
2019-05-01T18:11:29.278Z,99043.16
2019-05-01T18:14:01.772Z,99044.27
2019-05-01T18:16:35.179Z,99039.54
2019-05-01T18:19:09.943Z,99037.40
2019-05-01T18:21:46.596Z,99038.48
2019-05-01T18:24:39.087Z,99038.09
2019-05-01T18:27:29.259Z,99041.41
2019-05-01T18:30:05.470Z,99043.75
2019-05-01T18:32:47.394Z,99046.59
2019-05-01T18:35:16.287Z,99046.22
2019-05-01T18:37:57.268Z,99046.36
2019-05-01T18:40:36.783Z,99042.59
2019-05-01T18:43:09.484Z,99048.37
2019-05-01T18:45:53.675Z,99045.14
2019-05-01T18:48:26.161Z,99046.25
2019-05-01T18:50:58.567Z,99047.66
2019-05-01T18:53:31.059Z,99048.13
2019-05-01T18:56:05.535Z,99047.11
2019-05-01T18:58:38.716Z,99046.77
2019-05-01T19:01:14.013Z,99049.95
2019-05-01T19:03:46.803Z,99047.47
2019-05-01T19:06:19.411Z,99048.23
2019-05-01T19:08:51.896Z,99050.13
2019-05-01T19:11:24.340Z,99050.58
2019-05-01T19:13:56.820Z,99052.27
2019-05-01T19:16:29.239Z,99053.02
2019-05-01T19:19:03.958Z,99052.78
2019-05-01T19:21:36.138Z,99054.66
2019-05-01T19:24:08.665Z,99054.78
2019-05-01T19:26:42.608Z,99057.13
2019-05-01T19:29:15.261Z,99055.28
2019-05-01T19:31:47.687Z,99054.77
2019-05-01T19:34:20.133Z,99051.32
2019-05-01T19:36:52.707Z,99053.69
2019-05-01T19:39:25.215Z,99050.70
2019-05-01T19:41:57.692Z,99051.95
2019-05-01T19:44:31.134Z,99047.70
2019-05-01T19:47:03.605Z,99053.23
2019-05-01T19:49:36.118Z,99053.64
2019-05-01T19:52:09.470Z,99050.52
2019-05-01T19:54:41.908Z,99053.91
2019-05-01T19:57:14.373Z,99053.98
2019-05-01T19:59:46.829Z,99052.92
2019-05-01T20:02:22.163Z,99056.41
2019-05-01T20:04:53.644Z,99056.59
2019-05-01T20:07:26.130Z,99058.96
2019-05-01T20:09:58.623Z,99060.75
2019-05-01T20:12:31.044Z,99058.70
2019-05-01T20:15:03.649Z,99055.84
2019-05-01T20:17:37.933Z,99055.79
2019-05-01T20:20:10.364Z,99053.44
2019-05-01T20:22:42.948Z,99048.50
2019-05-01T20:25:19.320Z,99051.19
2019-05-01T20:27:53.073Z,99053.19
2019-05-01T20:30:23.722Z,99046.47
2019-05-01T20:32:58.273Z,99046.71
2019-05-01T20:35:30.379Z,99043.58
2019-05-01T20:38:03.861Z,99047.34
2019-05-01T20:40:36.555Z,99044.72
2019-05-01T20:43:08.972Z,99045.76
2019-05-01T20:45:44.989Z,99044.42
2019-05-01T20:48:18.448Z,99035.53
2019-05-01T20:50:49.777Z,99042.70
2019-05-01T20:53:22.192Z,99039.44
2019-05-01T20:56:01.646Z,99036.45
2019-05-01T20:58:34.139Z,99039.47
2019-05-01T21:01:06.685Z,99040.55
2019-05-01T21:03:41.086Z,99040.67
2019-05-01T21:06:21.921Z,99039.94
2019-05-01T21:09:19.247Z,99039.50
2019-05-01T21:12:04.989Z,99036.92
2019-05-01T21:14:29.754Z,99032.44
2019-05-01T21:17:02.271Z,99032.56
2019-05-01T21:19:37.192Z,99035.66
2019-05-01T21:22:27.276Z,99033.61
2019-05-01T21:24:59.683Z,99033.67
2019-05-01T21:27:33.505Z,99035.73
2019-05-01T21:30:06.943Z,99032.62
2019-05-01T21:32:39.377Z,99033.26
2019-05-01T21:35:13.628Z,99031.46
2019-05-01T21:37:45.932Z,99023.03
2019-05-01T21:40:19.314Z,99020.41
2019-05-01T21:42:55.776Z,99023.86
2019-05-01T21:45:28.071Z,99020.41
2019-05-01T21:48:03.092Z,99019.95
2019-05-01T21:50:35.668Z,99018.58
2019-05-01T21:53:08.107Z,99016.36
2019-05-01T21:55:40.443Z,99016.75
2019-05-01T21:58:15.173Z,99013.73
2019-05-01T22:00:46.993Z,99012.41
2019-05-01T22:03:21.583Z,99014.72
2019-05-01T22:05:54.722Z,99012.61
2019-05-01T22:08:27.360Z,99010.61
2019-05-01T22:11:01.855Z,99009.49
2019-05-01T22:13:39.811Z,99009.49
2019-05-01T22:16:18.457Z,99008.82
2019-05-01T22:19:00.273Z,99006.38
2019-05-01T22:21:51.604Z,99006.34
2019-05-01T22:24:40.090Z,99010.16
2019-05-01T22:27:17.423Z,99011.95
2019-05-01T22:29:57.140Z,99005.24
2019-05-01T22:32:37.561Z,99007.90
2019-05-01T22:35:22.685Z,99007.77
2019-05-01T22:37:55.096Z,99003.02
2019-05-01T22:40:46.448Z,98999.83
2019-05-01T22:43:18.946Z,99000.56
2019-05-01T22:45:51.519Z,99000.97
2019-05-01T22:48:23.928Z,98999.62
2019-05-01T22:50:59.492Z,98999.23
2019-05-01T22:53:31.903Z,98995.73
2019-05-01T22:56:04.403Z,98995.37
2019-05-01T22:58:36.873Z,98993.58
2019-05-01T23:01:13.295Z,99000.55
2019-05-01T23:03:58.109Z,98995.48
2019-05-01T23:06:30.563Z,98999.05
2019-05-01T23:09:03.062Z,98997.41
2019-05-01T23:11:38.950Z,99001.63
2019-05-01T23:14:11.678Z,99002.11
2019-05-01T23:17:03.783Z,98992.23
2019-05-01T23:19:40.752Z,98992.64
2019-05-01T23:22:11.531Z,98987.33
2019-05-01T23:24:43.937Z,98990.20
2019-05-01T23:27:16.399Z,98984.73
2019-05-01T23:29:48.802Z,98980.59
2019-05-01T23:32:21.239Z,98978.68
2019-05-01T23:34:53.641Z,98976.12
2019-05-01T23:37:26.167Z,98982.84
2019-05-01T23:39:58.573Z,98977.84
2019-05-01T23:42:31.005Z,98965.01
2019-05-01T23:45:03.420Z,98970.61
2019-05-01T23:47:35.894Z,98966.00
2019-05-01T23:50:08.305Z,98961.07
2019-05-01T23:52:40.743Z,98957.97
2019-05-01T23:55:14.750Z,98959.13
2019-05-01T23:57:47.184Z,98951.59
